Time;durP1;ratioP1;P1;durP2;ratioP2;P2;SDS_P1;SDS_P2;PMS_P1;PMS_P2;Temp;Humidity;BMP_temperature;BMP_pressure;BME280_temperature;BME280_humidity;BME280_pressure;Samples;Min_cycle;Max_cycle;Signal;HPM_P1;HPM_P2
2023/05/02 00:00:47;;;;;;;30.10;23.05;;;;;;;;;;5046844;28;20419;-63
2023/05/02 00:03:15;;;;;;;29.70;22.40;;;;;;;;;;5039125;28;20417;-62
2023/05/02 00:05:42;;;;;;;30.05;22.65;;;;;;;;;;5043761;28;20428;-63
2023/05/02 00:08:09;;;;;;;31.77;24.13;;;;;;;;;;5042814;28;20409;-62
2023/05/02 00:10:37;;;;;;;31.70;24.45;;;;;;;;;;5045914;28;20452;-63
2023/05/02 00:13:04;;;;;;;32.45;24.63;;;;;;;;;;5041352;28;20423;-63
2023/05/02 00:15:31;;;;;;;32.28;25.02;;;;;;;;;;5044400;28;20908;-62
2023/05/02 00:17:59;;;;;;;37.75;26.63;;;;;;;;;;5043325;28;20832;-63
2023/05/02 00:20:26;;;;;;;36.22;27.05;;;;;;;;;;5039235;28;20418;-62
2023/05/02 00:22:53;;;;;;;37.40;27.05;;;;;;;;;;5041099;28;20766;-62
2023/05/02 00:25:20;;;;;;;39.88;28.52;;;;;;;;;;5039582;28;20417;-63
2023/05/02 00:27:49;;;;;;;39.17;28.70;;;;;;;;;;5039461;28;20472;-62
2023/05/02 00:30:17;;;;;;;41.85;30.50;;;;;;;;;;5045435;28;20425;-63
2023/05/02 00:32:44;;;;;;;38.25;28.38;;;;;;;;;;5044475;28;20925;-63
2023/05/02 00:35:11;;;;;;;41.65;30.13;;;;;;;;;;5041504;28;20429;-62
2023/05/02 00:37:38;;;;;;;45.33;32.10;;;;;;;;;;5039288;28;20431;-64
2023/05/02 00:40:06;;;;;;;51.85;34.83;;;;;;;;;;5039331;28;20534;-62
2023/05/02 00:42:34;;;;;;;48.38;32.92;;;;;;;;;;5039326;28;20853;-62
2023/05/02 00:45:03;;;;;;;50.63;34.47;;;;;;;;;;5042445;28;20428;-62
2023/05/02 00:47:30;;;;;;;47.45;34.13;;;;;;;;;;5037588;28;20426;-64
2023/05/02 00:49:59;;;;;;;46.40;32.65;;;;;;;;;;5039223;28;20407;-63
2023/05/02 00:52:26;;;;;;;48.45;33.88;;;;;;;;;;5042963;28;20428;-62
2023/05/02 00:54:53;;;;;;;48.97;34.10;;;;;;;;;;5042193;28;20483;-63
2023/05/02 00:57:20;;;;;;;48.05;34.70;;;;;;;;;;5038310;28;20791;-62
2023/05/02 00:59:47;;;;;;;49.75;34.58;;;;;;;;;;5040586;28;20419;-63
2023/05/02 01:02:23;;;;;;;52.97;35.30;;;;;;;;;;5042982;28;20419;-62
2023/05/02 01:04:54;;;;;;;53.08;34.90;;;;;;;;;;5036104;28;20905;-62
2023/05/02 01:07:30;;;;;;;51.58;34.90;;;;;;;;;;5037462;28;20413;-63
2023/05/02 01:10:02;;;;;;;53.63;36.78;;;;;;;;;;5043839;28;20455;-63
2023/05/02 01:12:33;;;;;;;54.35;37.45;;;;;;;;;;5049116;28;20460;-63
2023/05/02 01:15:05;;;;;;;55.42;36.97;;;10.40;99.90;;;;;;5044035;28;20418;-62
2023/05/02 01:17:36;;;;;;;54.85;36.53;;;10.80;99.90;;;;;;5041735;28;20504;-63
2023/05/02 01:20:06;;;;;;;54.70;36.97;;;10.70;99.90;;;;;;5044152;28;20856;-63
2023/05/02 01:22:34;;;;;;;52.63;35.33;;;10.80;99.90;;;;;;5043365;28;20415;-63
2023/05/02 01:25:20;;;;;;;57.75;37.53;;;10.90;99.90;;;;;;5044173;28;20490;-60
2023/05/02 01:27:57;;;;;;;54.13;36.30;;;10.90;99.90;;;;;;5041556;28;20414;-61
2023/05/02 01:30:27;;;;;;;56.35;37.13;;;11.00;99.90;;;;;;5049844;28;20433;-63
2023/05/02 01:32:57;;;;;;;59.42;39.58;;;10.90;99.90;;;;;;5045473;28;20419;-62
2023/05/02 01:35:26;;;;;;;62.85;39.80;;;10.80;99.90;;;;;;5046438;28;20500;-60
2023/05/02 01:37:54;;;;;;;60.00;39.35;;;10.70;99.90;;;;;;5039519;28;20505;-62
2023/05/02 01:40:22;;;;;;;56.60;38.13;;;10.80;99.90;;;;;;5046940;28;20482;-63
2023/05/02 01:42:51;;;;;;;60.72;38.20;;;10.90;99.90;;;;;;5041054;28;20443;-62
2023/05/02 01:45:20;;;;;;;61.78;40.03;;;10.90;99.90;;;;;;5042920;28;20421;-62
2023/05/02 01:47:50;;;;;;;61.55;39.28;;;10.80;99.90;;;;;;5041581;28;20414;-62
2023/05/02 01:50:20;;;;;;;63.85;40.10;;;10.70;99.90;;;;;;5038297;28;20417;-62
2023/05/02 01:52:48;;;;;;;66.75;41.53;;;10.70;99.90;;;;;;5048630;28;20767;-63
2023/05/02 01:55:17;;;;;;;68.75;42.63;;;10.60;99.90;;;;;;5049308;28;20953;-62
2023/05/02 01:57:46;;;;;;;69.30;43.95;;;10.50;99.90;;;;;;5043113;28;21123;-61
2023/05/02 02:00:16;;;;;;;65.97;42.50;;;10.40;99.90;;;;;;5050784;28;20419;-63
2023/05/02 02:02:44;;;;;;;69.13;43.70;;;10.60;99.90;;;;;;5046997;28;20417;-63
2023/05/02 02:05:13;;;;;;;68.37;42.20;;;10.60;99.90;;;;;;5039558;28;20829;-62
2023/05/02 02:07:40;;;;;;;73.25;43.90;;;10.50;99.90;;;;;;5038823;28;20498;-63
2023/05/02 02:10:08;;;;;;;66.70;41.65;;;10.50;99.90;;;;;;5047512;28;20421;-63
2023/05/02 02:12:40;;;;;;;66.63;41.57;;;10.60;99.90;;;;;;5043366;28;20470;-62
2023/05/02 02:15:13;;;;;;;69.13;42.90;;;10.50;99.90;;;;;;5044315;28;20422;-63
2023/05/02 02:17:42;;;;;;;70.95;42.45;;;10.50;99.90;;;;;;5036842;28;20798;-63
2023/05/02 02:20:11;;;;;;;67.80;41.50;;;10.40;99.90;;;;;;5041577;28;20424;-62
2023/05/02 02:22:42;;;;;;;67.70;40.83;;;10.30;99.90;;;;;;5039693;28;20418;-62
2023/05/02 02:25:11;;;;;;;61.20;37.42;;;10.30;99.90;;;;;;5043204;28;20422;-63
2023/05/02 02:27:38;;;;;;;58.72;36.53;;;10.40;99.90;;;;;;5040753;28;20411;-63
2023/05/02 02:30:06;;;;;;;63.33;38.70;;;10.40;99.90;;;;;;5046866;28;20430;-63
2023/05/02 02:32:33;;;;;;;62.92;36.75;;;10.40;99.90;;;;;;5042128;28;20421;-63
2023/05/02 02:35:00;;;;;;;58.67;35.65;;;10.40;99.90;;;;;;5040362;28;20805;-61
2023/05/02 02:37:32;;;;;;;54.95;32.40;;;10.50;99.90;;;;;;5038799;28;20783;-62
2023/05/02 02:40:07;;;;;;;56.85;32.83;;;10.50;99.90;;;;;;5042628;28;20445;-63
2023/05/02 02:42:43;;;;;;;54.83;33.55;;;10.60;99.90;;;;;;5035823;28;20423;-62
2023/05/02 02:45:30;;;;;;;54.65;32.35;;;10.40;99.90;;;;;;5039938;28;20468;-62
2023/05/02 02:48:08;;;;;;;50.72;29.15;;;10.40;99.90;;;;;;5042306;28;20419;-62
2023/05/02 02:50:42;;;;;;;51.22;29.77;;;10.40;99.90;;;;;;5039743;28;20485;-61
2023/05/02 02:53:16;;;;;;;51.85;30.15;;;10.50;99.90;;;;;;5043817;28;20557;-62
2023/05/02 02:55:53;;;;;;;47.22;29.33;;;10.50;99.90;;;;;;5038292;28;20971;-64
2023/05/02 02:58:30;;;;;;;50.33;29.35;;;10.50;99.90;;;;;;5041000;28;20427;-64
2023/05/02 03:00:57;;;;;;;49.15;28.20;;;10.40;99.90;;;;;;4983183;28;1726362;-62
2023/05/02 03:03:27;;;;;;;46.65;27.55;;;10.40;99.90;;;;;;5046357;28;20413;-63
2023/05/02 03:05:55;;;;;;;44.40;26.25;;;;;;;;;;5038071;28;20426;-62
2023/05/02 03:08:22;;;;;;;45.10;25.13;;;10.40;99.90;;;;;;5038349;28;20793;-63
2023/05/02 03:10:50;;;;;;;43.28;25.60;;;;;;;;;;5044316;28;20433;-62
2023/05/02 03:13:17;;;;;;;42.75;24.95;;;10.20;99.90;;;;;;5039701;28;20480;-63
2023/05/02 03:16:05;;;;;;;40.60;24.08;;;;;;;;;;5044014;28;20417;-63
2023/05/02 03:18:32;;;;;;;42.03;23.58;;;;;;;;;;5033958;28;20433;-63
2023/05/02 03:20:59;;;;;;;39.63;22.15;;;10.30;99.90;;;;;;5044871;28;20473;-63
2023/05/02 03:23:26;;;;;;;36.22;21.42;;;10.40;99.90;;;;;;5044002;28;20429;-62
2023/05/02 03:25:54;;;;;;;35.83;21.88;;;10.40;99.90;;;;;;5044723;28;20489;-63
2023/05/02 03:28:21;;;;;;;37.10;21.55;;;10.20;99.90;;;;;;5045337;28;20419;-63
2023/05/02 03:30:47;;;;;;;32.70;19.60;;;10.20;99.90;;;;;;5048693;28;20908;-63
2023/05/02 03:33:14;;;;;;;32.47;18.50;;;10.30;99.90;;;;;;5046731;28;20417;-63
2023/05/02 03:35:41;;;;;;;30.83;18.95;;;10.30;99.90;;;;;;5043821;28;20425;-62
2023/05/02 03:38:07;;;;;;;32.53;18.83;;;10.10;99.90;;;;;;5046019;28;20429;-63
2023/05/02 03:40:34;;;;;;;31.13;19.55;;;10.20;99.90;;;;;;5039097;28;20422;-62
2023/05/02 03:43:02;;;;;;;30.67;18.65;;;10.10;99.90;;;;;;5040137;28;20876;-62
2023/05/02 03:45:29;;;;;;;28.48;18.10;;;10.20;99.90;;;;;;5039779;28;20471;-63
2023/05/02 03:47:55;;;;;;;31.90;18.88;;;10.30;99.90;;;;;;5038882;28;20414;-63
2023/05/02 03:50:22;;;;;;;29.65;18.90;;;10.50;99.90;;;;;;5043553;28;20479;-63
2023/05/02 03:52:49;;;;;;;28.42;18.92;;;10.50;99.90;;;;;;5043800;28;20417;-63
2023/05/02 03:55:16;;;;;;;30.10;18.98;;;10.60;99.90;;;;;;5042289;28;20421;-62
2023/05/02 03:57:42;;;;;;;32.20;19.20;;;10.60;99.90;;;;;;5039680;28;20427;-63
2023/05/02 04:00:12;;;;;;;30.50;18.88;;;10.70;99.90;;;;;;5051219;28;20501;-64
2023/05/02 04:02:38;;;;;;;33.60;19.10;;;10.80;99.90;;;;;;5043658;28;20459;-63
2023/05/02 04:05:07;;;;;;;30.63;18.70;;;10.90;99.90;;;;;;5042130;28;20483;-63
2023/05/02 04:07:34;;;;;;;27.27;18.58;;;10.80;99.90;;;;;;5042716;28;20417;-63
2023/05/02 04:10:01;;;;;;;29.98;18.52;;;10.80;99.90;;;;;;5043192;28;20448;-63
2023/05/02 04:12:27;;;;;;;27.45;17.15;;;10.80;99.90;;;;;;5036740;28;20477;-63
2023/05/02 04:14:54;;;;;;;28.60;17.70;;;10.90;99.90;;;;;;5040845;28;20410;-63
2023/05/02 04:17:22;;;;;;;26.98;16.55;;;10.90;99.90;;;;;;5039168;28;20473;-63
2023/05/02 04:19:50;;;;;;;26.97;16.73;;;10.90;99.90;;;;;;5036392;28;20427;-63
2023/05/02 04:22:16;;;;;;;26.42;16.55;;;10.90;99.90;;;;;;5039559;28;20504;-63
2023/05/02 04:24:43;;;;;;;25.77;15.98;;;10.90;99.90;;;;;;5043316;28;20419;-63
2023/05/02 04:27:10;;;;;;;23.83;15.43;;;10.90;99.90;;;;;;5043072;28;20938;-63
2023/05/02 04:29:36;;;;;;;24.85;15.10;;;10.90;99.90;;;;;;5049116;28;20471;-63
2023/05/02 04:32:03;;;;;;;25.77;15.33;;;10.90;99.90;;;;;;5039155;28;20832;-62
2023/05/02 04:34:31;;;;;;;28.15;15.20;;;10.80;99.90;;;;;;5043255;28;20851;-63
2023/05/02 04:36:57;;;;;;;25.83;15.13;;;10.70;99.90;;;;;;5036593;28;21083;-63
2023/05/02 04:39:24;;;;;;;24.17;14.80;;;10.80;99.90;;;;;;5045856;28;20499;-62
2023/05/02 04:41:50;;;;;;;26.95;15.05;;;10.80;99.90;;;;;;5038031;28;20423;-63
2023/05/02 04:44:17;;;;;;;33.72;15.85;;;10.90;99.90;;;;;;5042148;28;20422;-62
2023/05/02 04:46:44;;;;;;;29.15;15.68;;;10.70;99.90;;;;;;5041107;28;20806;-63
2023/05/02 04:49:11;;;;;;;28.88;15.65;;;10.80;99.90;;;;;;5042584;28;20429;-61
2023/05/02 04:51:39;;;;;;;26.08;15.77;;;10.70;99.90;;;;;;5041472;28;20413;-63
2023/05/02 04:54:05;;;;;;;32.10;17.10;;;10.50;99.90;;;;;;5040503;28;20501;-63
2023/05/02 04:56:32;;;;;;;33.58;17.80;;;10.40;99.90;;;;;;5042547;28;20417;-63
2023/05/02 04:58:59;;;;;;;34.40;18.10;;;10.40;99.90;;;;;;5043588;28;20493;-63
2023/05/02 05:01:26;;;;;;;34.58;18.58;;;10.40;99.90;;;;;;5043497;28;20424;-63
2023/05/02 05:03:53;;;;;;;39.10;19.37;;;10.40;99.90;;;;;;5040906;28;20768;-64
2023/05/02 05:06:20;;;;;;;34.42;18.98;;;10.40;99.90;;;;;;5039105;28;20525;-64
2023/05/02 05:08:48;;;;;;;37.25;20.33;;;10.40;99.90;;;;;;5041274;28;20473;-64
2023/05/02 05:11:14;;;;;;;39.23;20.33;;;10.30;99.90;;;;;;5042613;28;20421;-64
2023/05/02 05:13:41;;;;;;;40.83;20.85;;;10.30;99.90;;;;;;5042276;28;20417;-61
2023/05/02 05:16:09;;;;;;;46.23;22.47;;;10.40;99.90;;;;;;5039197;28;20502;-63
2023/05/02 05:18:39;;;;;;;46.17;22.10;;;10.40;99.90;;;;;;5041284;28;20421;-62
2023/05/02 05:21:06;;;;;;;47.88;22.92;;;10.40;99.90;;;;;;5040599;28;20418;-62
2023/05/02 05:23:32;;;;;;;46.83;23.95;;;10.30;99.90;;;;;;5039392;28;20423;-61
2023/05/02 05:26:08;;;;;;;44.65;23.58;;;10.30;99.90;;;;;;5040716;28;20413;-62
2023/05/02 05:28:35;;;;;;;43.72;23.55;;;10.10;99.90;;;;;;5041647;28;20505;-62
2023/05/02 05:31:05;;;;;;;39.97;22.23;;;10.20;99.90;;;;;;5043687;28;20418;-62
2023/05/02 05:33:32;;;;;;;35.38;20.85;;;10.20;99.90;;;;;;5042170;28;20421;-62
2023/05/02 05:36:04;;;;;;;30.15;18.88;;;10.20;99.90;;;;;;5039906;28;20449;-62
2023/05/02 05:38:30;;;;;;;27.15;16.40;;;10.10;99.90;;;;;;5038670;28;20432;-62
2023/05/02 05:40:57;;;;;;;22.42;14.50;;;10.10;99.90;;;;;;5040519;28;20414;-62
2023/05/02 05:43:25;;;;;;;20.70;13.40;;;10.10;99.90;;;;;;5041352;28;20452;-62
2023/05/02 05:45:52;;;;;;;19.85;13.38;;;10.10;99.90;;;;;;5039217;28;20418;-62
2023/05/02 05:48:19;;;;;;;21.00;13.67;;;10.00;99.90;;;;;;5039379;28;20461;-62
2023/05/02 05:50:46;;;;;;;22.83;14.48;;;10.10;99.90;;;;;;5043005;28;20780;-62
2023/05/02 05:53:12;;;;;;;22.48;14.15;;;10.00;99.90;;;;;;5045519;28;20417;-63
2023/05/02 05:55:39;;;;;;;22.67;15.73;;;10.00;99.90;;;;;;5043000;28;20480;-62
2023/05/02 05:58:06;;;;;;;23.88;14.80;;;9.90;99.90;;;;;;5045320;28;20983;-62
2023/05/02 06:00:35;;;;;;;20.42;13.07;;;9.90;99.90;;;;;;5049068;28;20414;-62
2023/05/02 06:03:02;;;;;;;19.83;12.35;;;9.80;99.90;;;;;;5046535;28;20427;-62
2023/05/02 06:05:29;;;;;;;17.50;11.32;;;9.80;99.90;;;;;;5043573;28;20888;-62
2023/05/02 06:07:56;;;;;;;19.43;11.67;;;9.90;99.90;;;;;;5044608;28;20471;-62
2023/05/02 06:10:23;;;;;;;15.80;10.13;;;9.60;99.90;;;;;;5041338;28;20414;-62
2023/05/02 06:12:50;;;;;;;17.97;10.53;;;9.70;99.90;;;;;;5050827;28;20422;-62
2023/05/02 06:15:16;;;;;;;15.45;9.02;;;9.70;99.90;;;;;;5045186;28;20421;-62
2023/05/02 06:17:44;;;;;;;15.27;9.32;;;9.70;99.90;;;;;;5042825;28;20488;-63
2023/05/02 06:20:12;;;;;;;13.07;8.38;;;9.70;99.90;;;;;;5048070;28;20413;-61
2023/05/02 06:22:39;;;;;;;16.20;7.85;;;9.80;99.90;;;;;;5043783;28;20444;-62
2023/05/02 06:25:07;;;;;;;13.18;7.72;;;9.70;99.90;;;;;;5044629;28;20419;-61
2023/05/02 06:27:34;;;;;;;14.27;7.90;;;9.70;99.90;;;;;;5042256;28;20494;-62
2023/05/02 06:30:00;;;;;;;12.60;7.10;;;9.80;99.90;;;;;;5048460;28;20797;-62
2023/05/02 06:32:30;;;;;;;12.77;7.53;;;9.90;99.90;;;;;;5048325;28;20478;-62
2023/05/02 06:34:58;;;;;;;10.63;7.28;;;9.80;99.90;;;;;;5042891;28;20415;-62
2023/05/02 06:37:24;;;;;;;11.50;7.70;;;9.90;99.90;;;;;;5045434;28;20524;-62
2023/05/02 06:39:51;;;;;;;10.82;6.75;;;10.00;99.90;;;;;;5040984;28;20423;-62
2023/05/02 06:42:18;;;;;;;9.85;6.60;;;10.00;99.90;;;;;;5045549;28;20421;-62
2023/05/02 06:44:44;;;;;;;10.05;5.90;;;10.10;99.90;;;;;;5044055;28;20413;-62
2023/05/02 06:47:11;;;;;;;10.23;5.90;;;10.20;99.90;;;;;;5042610;28;20421;-62
2023/05/02 06:49:37;;;;;;;10.27;5.40;;;10.20;99.90;;;;;;5041540;28;20473;-62
2023/05/02 06:52:05;;;;;;;11.23;5.65;;;10.40;99.90;;;;;;5043593;28;20417;-62
2023/05/02 06:54:32;;;;;;;9.73;5.93;;;10.50;99.90;;;;;;5043577;28;20418;-62
2023/05/02 06:57:00;;;;;;;10.43;5.88;;;10.50;99.90;;;;;;5040975;28;20959;-62
2023/05/02 06:59:27;;;;;;;8.88;6.00;;;10.70;99.90;;;;;;5049049;28;20429;-62
2023/05/02 07:01:54;;;;;;;8.77;4.90;;;10.90;99.90;;;;;;5045564;28;20419;-62
2023/05/02 07:04:20;;;;;;;9.45;4.72;;;11.00;99.90;;;;;;5042350;28;20410;-62
2023/05/02 07:06:47;;;;;;;7.87;5.07;;;11.10;99.90;;;;;;5042804;28;20420;-62
2023/05/02 07:09:15;;;;;;;11.45;5.28;;;11.00;99.90;;;;;;5032759;28;20472;-62
2023/05/02 07:11:42;;;;;;;10.02;5.28;;;11.00;99.90;;;;;;5032461;28;20442;-62
2023/05/02 07:14:09;;;;;;;12.40;5.45;;;11.00;99.90;;;;;;5032262;28;20886;-62
2023/05/02 07:16:35;;;;;;;10.73;6.70;;;11.00;99.90;;;;;;5032047;28;20419;-62
2023/05/02 07:19:03;;;;;;;12.30;6.93;;;10.80;99.90;;;;;;5032356;28;20963;-62
2023/05/02 07:21:31;;;;;;;12.48;6.47;;;10.80;99.90;;;;;;5039544;28;20979;-62
2023/05/02 07:23:57;;;;;;;11.27;6.32;;;10.70;99.90;;;;;;5043734;28;20409;-61
2023/05/02 07:26:26;;;;;;;10.40;6.75;;;10.80;99.90;;;;;;5041441;28;20418;-62
2023/05/02 07:28:53;;;;;;;9.32;6.65;;;10.60;99.90;;;;;;5042481;28;20413;-62
2023/05/02 07:31:19;;;;;;;9.70;5.80;;;10.70;99.90;;;;;;5050874;28;20482;-62
2023/05/02 07:33:46;;;;;;;10.80;5.82;;;10.70;99.90;;;;;;5051358;28;20419;-62
2023/05/02 07:36:12;;;;;;;8.85;6.60;;;10.70;99.90;;;;;;5045082;28;20413;-62
2023/05/02 07:38:39;;;;;;;9.43;6.30;;;10.60;99.90;;;;;;5040481;28;20425;-62
2023/05/02 07:41:06;;;;;;;9.63;6.07;;;10.70;99.90;;;;;;5042902;28;20783;-62
2023/05/02 07:43:34;;;;;;;8.73;5.88;;;10.60;99.90;;;;;;5041706;28;20890;-62
2023/05/02 07:46:04;;;;;;;9.93;5.72;;;10.30;99.90;;;;;;5045036;28;20470;-62
2023/05/02 07:48:31;;;;;;;10.63;5.15;;;10.10;99.90;;;;;;5043024;28;20415;-62
2023/05/02 07:51:06;;;;;;;4.60;3.80;;;9.70;99.90;;;;;;5042279;28;20418;-62
2023/05/02 07:53:33;;;;;;;6.82;4.00;;;9.40;99.90;;;;;;5042206;28;20428;-62
2023/05/02 07:55:59;;;;;;;4.90;3.30;;;9.40;99.90;;;;;;5044082;28;20797;-62
2023/05/02 07:58:26;;;;;;;6.68;4.05;;;9.30;99.90;;;;;;5047920;28;20433;-62
2023/05/02 08:00:54;;;;;;;5.55;4.30;;;9.10;99.90;;;;;;5048644;28;20417;-62
2023/05/02 08:03:21;;;;;;;8.25;4.70;;;9.10;99.90;;;;;;5050684;28;20461;-62
2023/05/02 08:05:47;;;;;;;9.35;5.68;;;9.10;99.90;;;;;;5042446;28;20409;-62
2023/05/02 08:08:14;;;;;;;8.95;5.40;;;9.10;99.90;;;;;;5040604;28;20798;-62
2023/05/02 08:10:41;;;;;;;7.83;5.27;;;9.10;99.90;;;;;;5040143;28;20415;-62
2023/05/02 08:13:07;;;;;;;5.55;4.55;;;9.20;99.90;;;;;;5031321;28;20411;-62
2023/05/02 08:15:34;;;;;;;6.82;4.82;;;9.20;99.90;;;;;;5031109;28;20488;-62
2023/05/02 08:18:02;;;;;;;5.50;4.30;;;9.20;99.90;;;;;;5030580;28;20425;-62
2023/05/02 08:20:28;;;;;;;5.60;4.28;;;9.30;99.90;;;;;;5031091;28;20473;-61
2023/05/02 08:22:55;;;;;;;3.95;3.38;;;9.30;99.90;;;;;;5031212;28;20415;-61
2023/05/02 08:25:22;;;;;;;4.03;3.33;;;9.20;99.90;;;;;;5039865;28;20410;-62
2023/05/02 08:27:48;;;;;;;4.43;3.38;;;9.10;99.90;;;;;;5040694;28;20469;-63
2023/05/02 08:30:15;;;;;;;5.03;3.42;;;9.20;99.90;;;;;;5045478;28;20818;-62
2023/05/02 08:32:42;;;;;;;4.25;3.30;;;9.10;99.90;;;;;;5045661;28;20467;-62
2023/05/02 08:35:10;;;;;;;5.38;3.65;;;8.90;99.90;;;;;;5041755;28;20409;-62
2023/05/02 08:37:37;;;;;;;8.43;4.45;;;8.80;99.90;;;;;;5030497;28;20439;-62
2023/05/02 08:40:04;;;;;;;9.23;4.38;;;8.70;99.90;;;;;;5030864;28;20797;-62
2023/05/02 08:42:33;;;;;;;6.65;4.57;;;8.40;99.90;;;;;;5031092;28;20417;-62
2023/05/02 08:45:01;;;;;;;9.57;4.75;;;8.20;99.90;;;;;;5031029;28;20415;-62
2023/05/02 08:47:29;;;;;;;7.50;4.50;;;8.10;99.90;;;;;;5041970;28;20842;-62
2023/05/02 08:49:57;;;;;;;9.90;5.43;;;7.90;99.90;;;;;;5040056;28;20415;-62
2023/05/02 08:52:26;;;;;;;10.52;5.53;;;7.90;99.90;;;;;;5039429;28;20411;-62
2023/05/02 08:54:54;;;;;;;8.13;5.60;;;8.10;99.90;;;;;;5041493;28;20413;-62
2023/05/02 08:57:21;;;;;;;11.98;5.95;;;8.00;99.90;;;;;;5041519;28;20445;-62
2023/05/02 08:59:48;;;;;;;8.98;5.57;;;8.10;99.90;;;;;;5040526;28;20429;-61
2023/05/02 09:02:24;;;;;;;13.75;6.28;;;8.10;99.90;;;;;;5047282;28;20487;-62
2023/05/02 09:04:54;;;;;;;11.00;5.97;;;8.20;99.90;;;;;;5030676;28;20411;-62
2023/05/02 09:07:22;;;;;;;10.73;6.63;;;8.20;99.90;;;;;;5031473;28;20473;-62
2023/05/02 09:09:50;;;;;;;9.05;5.60;;;8.20;99.90;;;;;;5030515;28;20762;-63
2023/05/02 09:12:16;;;;;;;8.13;5.68;;;8.40;99.90;;;;;;5030450;28;20418;-62
2023/05/02 09:14:43;;;;;;;9.88;5.60;;;8.50;99.90;;;;;;5031661;28;20473;-62
2023/05/02 09:17:10;;;;;;;9.60;6.30;;;8.40;99.90;;;;;;5039928;28;20420;-62
2023/05/02 09:19:37;;;;;;;10.25;6.45;;;8.50;99.90;;;;;;5041628;28;20433;-61
2023/05/02 09:22:04;;;;;;;10.02;6.10;;;8.60;99.90;;;;;;5039764;28;20461;-62
2023/05/02 09:24:30;;;;;;;11.30;6.30;;;8.70;99.90;;;;;;5039823;28;20975;-62
2023/05/02 09:27:01;;;;;;;10.57;6.32;;;8.70;99.90;;;;;;5042252;28;20452;-62
2023/05/02 09:29:34;;;;;;;11.65;6.47;;;8.80;99.90;;;;;;5049332;28;20420;-63
2023/05/02 09:32:01;;;;;;;13.40;7.38;;;8.80;99.90;;;;;;5046491;28;20423;-62
2023/05/02 09:34:27;;;;;;;14.77;8.30;;;8.70;99.90;;;;;;5043695;28;20465;-62
2023/05/02 09:36:54;;;;;;;15.48;7.90;;;8.40;99.90;;;;;;5044816;28;20892;-62
2023/05/02 09:39:23;;;;;;;10.98;8.02;;;8.50;99.90;;;;;;5043875;28;20480;-62
2023/05/02 09:41:49;;;;;;;11.80;6.47;;;8.60;99.90;;;;;;5042374;28;20422;-62
2023/05/02 09:44:19;;;;;;;7.60;5.80;;;8.50;99.90;;;;;;5044603;28;20834;-62
2023/05/02 09:46:48;;;;;;;10.80;7.18;;;8.20;99.90;;;;;;5044713;28;20413;-62
2023/05/02 09:49:17;;;;;;;11.70;7.70;;;8.00;99.90;;;;;;5043193;28;20418;-62
2023/05/02 09:51:45;;;;;;;13.25;7.65;;;7.90;99.90;;;;;;5042713;28;20447;-62
2023/05/02 09:54:12;;;;;;;12.25;7.47;;;8.00;99.90;;;;;;5042953;28;20418;-62
2023/05/02 09:56:55;;;;;;;9.43;6.03;;;8.40;99.90;;;;;;5043272;28;20415;-62
2023/05/02 09:59:24;;;;;;;12.67;6.27;;;8.50;99.90;;;;;;5049105;28;20425;-62
2023/05/02 10:01:56;;;;;;;9.65;5.13;;;8.60;99.90;;;;;;5049868;28;20502;-62
2023/05/02 10:04:24;;;;;;;8.43;5.10;;;8.80;99.90;;;;;;5044347;28;20792;-62
2023/05/02 10:06:51;;;;;;;7.82;5.03;;;9.00;99.90;;;;;;5041844;28;20421;-62
2023/05/02 10:09:19;;;;;;;8.35;4.93;;;9.20;99.90;;;;;;5042856;28;20477;-62
2023/05/02 10:11:46;;;;;;;9.88;4.95;;;9.30;99.90;;;;;;5044331;28;20879;-62
2023/05/02 10:14:15;;;;;;;9.07;5.43;;;9.30;99.90;;;;;;5043275;28;20476;-62
2023/05/02 10:16:53;;;;;;;10.68;5.50;;;9.40;99.90;;;;;;5041718;28;20415;-62
2023/05/02 10:19:23;;;;;;;9.77;5.35;;;9.50;99.90;;;;;;5042686;28;20557;-62
2023/05/02 10:21:51;;;;;;;11.48;5.30;;;9.90;99.90;;;;;;5042078;28;20476;-62
2023/05/02 10:24:18;;;;;;;9.25;5.57;;;10.00;99.90;;;;;;5042863;28;20411;-62
2023/05/02 10:26:44;;;;;;;10.40;6.47;;;10.00;94.90;;;;;;5044145;28;20409;-62
2023/05/02 10:29:11;;;;;;;11.25;5.90;;;10.00;99.90;;;;;;5047282;28;20469;-62
2023/05/02 10:31:39;;;;;;;11.27;5.20;;;10.10;93.20;;;;;;5054651;28;20418;-62
2023/05/02 10:34:10;;;;;;;11.18;5.40;;;10.30;3.60;;;;;;5042030;28;20469;-62
2023/05/02 10:36:37;;;;;;;10.90;5.13;;;10.00;57.10;;;;;;5041955;28;20454;-62
2023/05/02 10:39:04;;;;;;;7.57;4.57;;;10.30;65.30;;;;;;5033426;28;20423;-63
2023/05/02 10:41:33;;;;;;;10.20;4.63;;;10.40;1.00;;;;;;5034175;28;20472;-62
2023/05/02 10:44:01;;;;;;;8.25;3.67;;;10.60;5.70;;;;;;5032698;28;20449;-62
2023/05/02 10:46:32;;;;;;;7.45;3.80;;;10.90;1.00;;;;;;5032865;28;20434;-62
2023/05/02 10:49:03;;;;;;;9.63;3.97;;;11.10;99.90;;;;;;5039809;28;20467;-62
2023/05/02 10:51:32;;;;;;;8.70;4.15;;;11.20;30.70;;;;;;5043431;28;20406;-62
2023/05/02 10:54:23;;;;;;;6.97;3.92;;;11.50;1.00;;;;;;5041054;28;20885;-63
2023/05/02 10:57:04;;;;;;;9.52;4.72;;;11.70;99.90;;;;;;5042208;28;20415;-62
2023/05/02 10:59:33;;;;;;;7.75;4.35;;;11.80;99.90;;;;;;5050075;28;20522;-62
2023/05/02 11:02:00;;;;;;;10.50;4.05;;;11.90;99.90;;;;;;5050073;28;20434;-63
2023/05/02 11:05:00;;;;;;;7.32;3.60;;;11.20;99.90;;;;;;5043291;28;21169;-62
2023/05/02 11:07:28;;;;;;;9.47;5.20;;;10.70;99.90;;;;;;5043117;28;20960;-62
2023/05/02 11:10:27;;;;;;;10.65;5.50;;;11.10;1.00;;;;;;5041495;28;20411;-62
2023/05/02 11:12:55;;;;;;;8.82;4.75;;;11.50;1.00;;;;;;5043846;28;20467;-62
2023/05/02 11:15:54;;;;;;;16.83;6.80;;;11.40;1.00;;;;;;5044561;28;20473;-62
2023/05/02 11:18:21;;;;;;;10.00;5.13;;;11.20;99.90;;;;;;5042970;28;20471;-62
2023/05/02 11:20:47;;;;;;;9.55;4.80;;;10.90;99.90;;;;;;5041501;28;20431;-63
2023/05/02 11:23:24;;;;;;;9.95;4.80;;;10.80;99.90;;;;;;5041040;28;20414;-62
2023/05/02 11:25:52;;;;;;;10.38;5.10;;;10.80;99.90;;;;;;5042301;28;20418;-62
2023/05/02 11:28:41;;;;;;;7.25;4.00;;;10.90;99.90;;;;;;5041034;28;20417;-62
2023/05/02 11:31:09;;;;;;;8.93;4.70;;;10.90;41.20;;;;;;5052465;28;20785;-62
2023/05/02 11:33:36;;;;;;;10.45;4.15;;;10.90;99.90;;;;;;5041503;28;20777;-63
2023/05/02 11:36:03;;;;;;;9.52;4.57;;;11.00;99.90;;;;;;5042862;28;20413;-62
2023/05/02 11:38:38;;;;;;;8.00;4.28;;;10.80;1.00;;;;;;5042836;28;20413;-62
2023/05/02 11:41:05;;;;;;;13.03;4.70;;;10.90;1.00;;;;;;5042656;28;20512;-62
2023/05/02 11:43:31;;;;;;;8.07;4.57;;;10.80;1.00;;;;;;5041872;28;20407;-62
2023/05/02 11:46:00;;;;;;;11.17;4.37;;;10.50;99.90;;;;;;5040281;28;20415;-62
2023/05/02 11:48:27;;;;;;;10.57;4.57;;;10.50;99.90;;;;;;5042140;28;20417;-62
2023/05/02 11:50:56;;;;;;;12.93;4.20;;;10.80;1.00;;;;;;5038503;28;20477;-62
2023/05/02 11:53:24;;;;;;;9.13;4.15;;;11.00;1.00;;;;;;5040664;28;20415;-62
2023/05/02 11:55:54;;;;;;;7.97;4.60;;;11.00;99.90;;;;;;5041045;28;20419;-62
2023/05/02 11:58:22;;;;;;;9.05;4.10;;;11.00;99.90;;;;;;5042892;28;20407;-62
2023/05/02 12:00:51;;;;;;;8.38;4.03;;;11.10;99.90;;;;;;5048576;28;20427;-62
2023/05/02 12:03:29;;;;;;;9.52;4.50;;;11.00;89.20;;;;;;5042781;28;20417;-62
2023/05/02 12:05:56;;;;;;;7.45;4.47;;;10.90;99.90;;;;;;5042252;28;20417;-62
2023/05/02 12:08:25;;;;;;;11.00;4.55;;;11.30;99.90;;;;;;5040776;28;20410;-62
2023/05/02 12:10:55;;;;;;;8.80;4.50;;;11.50;1.00;;;;;;5040008;28;20422;-63
2023/05/02 12:13:23;;;;;;;8.77;4.05;;;11.80;99.90;;;;;;5031057;28;20504;-62
2023/05/02 12:15:52;;;;;;;7.70;4.30;;;11.90;99.90;;;;;;5030805;28;20890;-62
2023/05/02 12:18:22;;;;;;;7.95;4.30;;;12.10;99.90;;;;;;5039976;28;20786;-63
2023/05/02 12:20:49;;;;;;;7.88;3.80;;;12.10;99.90;;;;;;5039824;28;20453;-61
2023/05/02 12:23:16;;;;;;;5.40;3.55;;;12.10;1.00;;;;;;5031333;28;20469;-62
2023/05/02 12:25:43;;;;;;;8.68;3.58;;;11.90;1.00;;;;;;5031159;28;20418;-61
2023/05/02 12:28:11;;;;;;;6.05;3.65;;;12.10;1.00;;;;;;5031034;28;20415;-61
2023/05/02 12:30:40;;;;;;;5.45;3.63;;;12.10;1.00;;;;;;5046567;28;20466;-62
2023/05/02 12:33:07;;;;;;;7.03;3.87;;;12.10;99.90;;;;;;5045794;28;20429;-62
2023/05/02 12:35:35;;;;;;;7.00;3.50;;;12.30;99.90;;;;;;5041561;28;20409;-61
2023/05/02 12:38:13;;;;;;;6.97;4.00;;;12.40;99.90;;;;;;5041618;28;20417;-62
2023/05/02 12:40:50;;;;;;;8.95;3.95;;;12.50;99.90;;;;;;5040932;28;20524;-62
2023/05/02 12:43:19;;;;;;;7.53;3.40;;;12.00;99.90;;;;;;5040236;28;20419;-62
2023/05/02 12:45:47;;;;;;;7.00;3.63;;;11.80;99.90;;;;;;5038991;28;20419;-62
2023/05/02 12:48:22;;;;;;;6.25;3.08;;;11.80;99.90;;;;;;5039741;28;20415;-62
2023/05/02 12:50:49;;;;;;;8.90;3.13;;;12.10;99.90;;;;;;5039276;28;20411;-62
2023/05/02 12:53:16;;;;;;;6.53;3.25;;;12.00;99.90;;;;;;5043574;28;20471;-62
2023/05/02 12:55:43;;;;;;;6.23;3.37;;;12.00;99.90;;;;;;5041066;28;20493;-62